Time;durP1;ratioP1;P1;durP2;ratioP2;P2;SDS_P1;SDS_P2;PMS_P1;PMS_P2;Temp;Humidity;BMP_temperature;BMP_pressure;BME280_temperature;BME280_humidity;BME280_pressure;Samples;Min_cycle;Max_cycle;Signal;HPM_P1;HPM_P2
2022/11/29 00:01:03;;;;;;;11.53;6.55;;;;;;;3.89;78.87;101866.05;1704486;82;22177;-71
2022/11/29 00:03:30;;;;;;;10.60;6.60;;;;;;;3.90;78.87;101869.00;1728998;83;21682;-71
2022/11/29 00:05:56;;;;;;;11.12;6.60;;;;;;;3.92;78.87;101873.62;1700363;82;21634;-70
2022/11/29 00:08:23;;;;;;;12.90;6.87;;;;;;;3.95;78.89;101865.83;1725941;83;21060;-71
2022/11/29 00:10:52;;;;;;;13.03;7.17;;;;;;;3.94;78.81;101868.95;1706183;81;21048;-71
2022/11/29 00:13:18;;;;;;;11.38;6.80;;;;;;;3.92;78.79;101874.94;1706355;82;21340;-70
2022/11/29 00:15:45;;;;;;;12.98;7.40;;;;;;;3.88;78.79;101865.73;1757471;81;21591;-71
2022/11/29 00:18:11;;;;;;;12.40;6.60;;;;;;;3.87;78.82;101868.55;1725782;82;21861;-70
2022/11/29 00:20:38;;;;;;;12.43;7.42;;;;;;;3.89;78.86;101866.55;1752863;81;21608;-70
2022/11/29 00:23:05;;;;;;;11.45;6.75;;;;;;;3.87;78.81;101864.07;1729662;82;21086;-71
2022/11/29 00:25:32;;;;;;;14.13;7.47;;;;;;;3.88;78.78;101863.09;1617780;81;9999880;-71
2022/11/29 00:27:58;;;;;;;13.08;7.05;;;;;;;3.86;78.75;101865.59;1710219;83;20979;-71
2022/11/29 00:30:26;;;;;;;10.55;6.35;;;;;;;3.80;78.73;101867.12;1691546;83;21086;-70
2022/11/29 00:32:53;;;;;;;14.07;7.47;;;;;;;3.77;78.79;101866.16;1732597;82;21505;-70
2022/11/29 00:35:19;;;;;;;14.70;8.08;;;;;;;3.75;78.83;101862.86;1703932;83;21533;-71
2022/11/29 00:37:46;;;;;;;15.00;7.78;;;;;;;3.73;78.86;101862.23;1706040;83;21050;-71
2022/11/29 00:40:12;;;;;;;13.68;7.25;;;;;;;3.73;78.89;101868.84;1738805;82;21146;-72
2022/11/29 00:42:39;;;;;;;15.48;7.78;;;;;;;3.75;78.94;101861.53;1707797;83;21167;-72
2022/11/29 00:45:07;;;;;;;14.70;7.47;;;;;;;3.75;78.92;101859.74;1704123;83;21098;-69
2022/11/29 00:47:33;;;;;;;14.90;7.33;;;;;;;3.78;78.93;101863.01;1707361;83;21067;-70
2022/11/29 00:50:00;;;;;;;12.20;6.63;;;;;;;3.78;78.92;101862.50;1607958;81;10000285;-69
2022/11/29 00:52:27;;;;;;;12.45;6.22;;;;;;;3.78;78.95;101869.11;1704104;83;21061;-70
2022/11/29 00:54:53;;;;;;;13.72;7.58;;;;;;;3.77;78.92;101863.52;1716396;82;21113;-69
2022/11/29 00:57:19;;;;;;;12.75;7.05;;;;;;;3.75;78.89;101862.39;1733981;82;21045;-70
2022/11/29 00:59:47;;;;;;;12.75;6.58;;;;;;;3.72;78.91;101865.89;1709616;83;21050;-70
2022/11/29 01:02:14;;;;;;;13.43;7.50;;;;;;;3.70;78.93;101862.09;1736354;82;21100;-71
2022/11/29 01:04:40;;;;;;;11.38;6.03;;;;;;;3.72;78.94;101859.28;1732627;82;21046;-70
2022/11/29 01:07:07;;;;;;;11.20;6.10;;;;;;;3.74;78.97;101863.36;1732376;82;21097;-71
2022/11/29 01:09:33;;;;;;;12.40;6.00;;;;;;;3.75;78.97;101868.14;1701430;83;21074;-70
2022/11/29 01:12:00;;;;;;;11.53;6.37;;;;;;;3.73;79.03;101860.91;1708921;83;21035;-71
2022/11/29 01:14:26;;;;;;;12.30;6.55;;;;;;;3.71;79.04;101858.44;1709675;83;21925;-71
2022/11/29 01:16:52;;;;;;;10.98;6.00;;;;;;;3.72;79.04;101855.31;1729348;82;21532;-70
2022/11/29 01:19:19;;;;;;;14.30;6.47;;;;;;;3.71;79.04;101862.91;1723985;82;21700;-71
2022/11/29 01:21:45;;;;;;;10.65;5.62;;;;;;;3.71;79.02;101860.27;1737616;82;21048;-71
2022/11/29 01:24:12;;;;;;;13.75;6.83;;;;;;;3.70;79.03;101856.80;1681933;83;21535;-71
2022/11/29 01:26:38;;;;;;;12.25;6.62;;;;;;;3.67;78.95;101853.70;1687648;84;20988;-71
2022/11/29 01:29:05;;;;;;;15.03;7.12;;;;;;;3.61;78.91;101856.55;1691866;83;21591;-70
2022/11/29 01:31:36;;;;;;;14.43;7.62;;;;;;;3.62;78.95;101858.69;1726395;83;21077;-70
2022/11/29 01:34:04;;;;;;;14.30;7.30;;;;;;;3.62;78.99;101863.97;1692720;83;21102;-71
2022/11/29 01:36:30;;;;;;;13.75;6.55;;;;;;;3.61;78.97;101857.05;1729159;82;21014;-71
2022/11/29 01:39:02;;;;;;;14.25;7.10;;;;;;;3.63;78.96;101864.31;1700406;83;21137;-71
2022/11/29 01:41:31;;;;;;;11.97;6.67;;;;;;;3.62;78.94;101865.30;1725490;82;21327;-71
2022/11/29 01:44:12;;;;;;;11.25;6.10;;;;;;;3.59;78.85;101859.07;1734746;82;21042;-71
2022/11/29 01:46:41;;;;;;;11.33;6.25;;;;;;;3.56;78.77;101860.75;1697580;83;21560;-70
2022/11/29 01:49:14;;;;;;;10.45;5.62;;;;;;;3.52;78.77;101855.81;1728831;82;20998;-70
2022/11/29 01:51:44;;;;;;;10.63;5.77;;;;;;;3.41;78.66;101860.19;1733879;82;21059;-70
2022/11/29 01:54:10;;;;;;;10.08;5.50;;;;;;;3.41;78.66;101860.19;1709922;83;21977;-71
2022/11/29 01:56:37;;;;;;;10.35;5.58;;;;;;;3.42;78.67;101863.17;1702446;83;21590;-70
2022/11/29 01:59:08;;;;;;;12.05;6.35;;;;;;;3.32;79.00;101862.56;1733104;82;21472;-70
2022/11/29 02:01:35;;;;;;;10.50;5.70;;;;;;;3.28;79.10;101859.95;1709474;83;21628;-70
2022/11/29 02:04:02;;;;;;;9.63;5.58;;;;;;;3.29;79.19;101851.03;1696355;83;21151;-71
2022/11/29 02:06:29;;;;;;;10.18;5.15;;;;;;;3.29;79.14;101844.43;1725205;82;21928;-71
2022/11/29 02:08:55;;;;;;;11.55;5.65;;;;;;;3.26;79.14;101838.20;1690565;84;21055;-71
2022/11/29 02:11:45;;;;;;;9.73;5.37;;;;;;;3.22;79.13;101844.31;1729159;82;21112;-71
2022/11/29 02:14:44;;;;;;;10.58;6.00;;;;;;;3.22;79.14;101848.78;1727520;82;21037;-73
2022/11/29 02:17:34;;;;;;;11.45;6.12;;;;;;;3.19;79.12;101844.70;1716243;83;21229;-71
2022/11/29 02:20:55;;;;;;;11.78;5.67;;;;;;;3.18;79.12;101853.59;1699912;82;21685;-70
2022/11/29 02:23:48;;;;;;;9.35;5.50;;;;;;;3.20;79.14;101858.71;1684329;84;21098;-71
2022/11/29 02:26:37;;;;;;;10.18;4.95;;;;;;;3.23;79.07;101864.46;1721548;82;21088;-70
2022/11/29 02:29:55;;;;;;;9.88;5.40;;;;;;;3.22;78.99;101868.58;1692398;84;21102;-72
2022/11/29 02:33:04;;;;;;;9.18;4.83;;;;;;;3.18;78.97;101866.80;1675535;83;21117;-71
2022/11/29 02:35:56;;;;;;;9.38;5.28;;;;;;;3.20;78.98;101870.59;1719306;82;21589;-71
2022/11/29 02:39:06;;;;;;;10.43;5.30;;;;;;;3.20;78.86;101866.63;1732602;82;21085;-72
2022/11/29 02:42:27;;;;;;;7.90;4.45;;;;;;;3.18;78.80;101872.58;1718014;82;21022;-72
2022/11/29 02:45:34;;;;;;;9.23;5.25;;;;;;;3.14;78.67;101866.02;1722402;82;21602;-71
2022/11/29 02:48:53;;;;;;;9.40;4.92;;;;;;;3.13;78.64;101874.94;1681016;84;21781;-70
2022/11/29 02:51:40;;;;;;;8.30;4.78;;;;;;;3.13;78.54;101870.98;1706230;83;21098;-71
2022/11/29 02:54:24;;;;;;;7.85;4.22;;;;;;;3.11;78.44;101869.82;1727149;82;21492;-70
2022/11/29 02:57:02;;;;;;;8.10;4.50;;;;;;;3.09;78.34;101863.88;1704720;82;21034;-72
2022/11/29 03:00:06;;;;;;;8.80;4.42;;;;;;;3.06;78.25;101865.58;1726917;82;21044;-72
2022/11/29 03:02:57;;;;;;;8.50;4.83;;;;;;;3.07;78.18;101866.40;1720073;82;22050;-72
2022/11/29 03:06:13;;;;;;;7.97;4.95;;;;;;;3.07;78.10;101865.08;1708112;83;21059;-70
2022/11/29 03:09:03;;;;;;;7.87;4.50;;;;;;;3.07;78.02;101869.85;1719933;82;21062;-69
2022/11/29 03:12:12;;;;;;;8.08;4.58;;;;;;;3.02;77.93;101869.55;1723076;83;21024;-69
2022/11/29 03:14:50;;;;;;;7.30;4.45;;;;;;;2.95;77.72;101864.14;1726071;82;21601;-70
2022/11/29 03:17:39;;;;;;;7.95;4.10;;;;;;;2.90;77.73;101862.53;1723128;83;21313;-69
2022/11/29 03:20:19;;;;;;;6.22;3.75;;;;;;;2.90;77.72;101867.81;1709875;83;21077;-72
2022/11/29 03:23:05;;;;;;;6.30;3.67;;;;;;;2.89;77.70;101869.30;1731096;82;21062;-70
2022/11/29 03:25:56;;;;;;;7.28;4.30;;;;;;;2.89;77.68;101875.39;1670087;84;21026;-71
2022/11/29 03:28:37;;;;;;;6.37;3.60;;;;;;;2.89;77.63;101882.48;1700215;83;21091;-71
2022/11/29 03:31:20;;;;;;;7.33;4.05;;;;;;;2.86;77.54;101881.01;1703098;83;21064;-69
2022/11/29 03:34:18;;;;;;;8.08;4.25;;;;;;;2.85;77.53;101883.33;1727783;82;21007;-72
2022/11/29 03:36:50;;;;;;;6.67;4.08;;;;;;;2.85;77.52;101885.16;1723993;83;21534;-71
2022/11/29 03:39:22;;;;;;;7.05;3.98;;;;;;;2.85;77.53;101885.97;1704765;83;21106;-72
2022/11/29 03:41:59;;;;;;;6.57;3.83;;;;;;;2.85;77.47;101887.30;1729444;82;21032;-73
2022/11/29 03:44:29;;;;;;;6.45;3.67;;;;;;;2.84;77.50;101889.61;1684066;83;21192;-69
2022/11/29 03:47:14;;;;;;;6.08;3.58;;;;;;;2.83;77.52;101880.06;1694947;84;21600;-72
2022/11/29 03:50:05;;;;;;;7.12;3.87;;;;;;;2.80;77.53;101893.09;1704843;82;22406;-71
2022/11/29 03:52:55;;;;;;;6.28;3.47;;;;;;;2.84;77.59;101898.85;1727820;82;21595;-71
2022/11/29 03:55:33;;;;;;;7.75;4.10;;;;;;;2.90;77.58;101901.30;1687632;83;21063;-71
2022/11/29 03:58:14;;;;;;;6.58;3.62;;;;;;;2.84;77.46;101904.63;1726464;82;21167;-71
2022/11/29 04:01:01;;;;;;;7.40;4.03;;;;;;;2.82;77.47;101895.55;1726270;82;21009;-71
2022/11/29 04:03:58;;;;;;;5.80;3.40;;;;;;;2.80;77.49;101898.88;1731331;82;20995;-69
2022/11/29 04:06:50;;;;;;;6.95;3.83;;;;;;;2.78;77.46;101896.39;1729233;82;21306;-71
2022/11/29 04:09:51;;;;;;;6.33;3.20;;;;;;;2.77;77.37;101895.27;1686811;83;21106;-69
2022/11/29 04:12:32;;;;;;;6.00;3.20;;;;;;;2.80;77.33;101900.20;1719414;81;21650;-70
2022/11/29 04:15:07;;;;;;;5.22;3.10;;;;;;;2.81;77.25;101897.38;1696139;82;21102;-72
2022/11/29 04:18:09;;;;;;;5.05;2.72;;;;;;;2.85;77.28;101900.48;1700700;84;21156;-72
2022/11/29 04:21:20;;;;;;;5.42;3.15;;;;;;;2.89;77.20;101901.78;1696528;82;21085;-71
2022/11/29 04:24:28;;;;;;;5.00;3.00;;;;;;;2.90;77.06;101892.88;1702402;81;21041;-71
2022/11/29 04:27:24;;;;;;;6.35;3.17;;;;;;;2.93;77.00;101904.42;1674284;83;21808;-73
2022/11/29 04:30:13;;;;;;;4.92;2.90;;;;;;;2.91;76.88;101905.08;1691908;83;21059;-71
2022/11/29 04:33:15;;;;;;;4.80;2.95;;;;;;;2.92;76.87;101901.43;1705712;82;21038;-71
2022/11/29 04:36:15;;;;;;;6.25;3.40;;;;;;;2.94;76.82;101910.01;1726177;81;21045;-70
2022/11/29 04:39:08;;;;;;;6.30;3.40;;;;;;;2.96;76.74;101907.19;1700509;84;21071;-71
2022/11/29 04:42:00;;;;;;;6.12;3.47;;;;;;;2.91;76.62;101909.03;1726971;81;21133;-71
2022/11/29 04:44:54;;;;;;;6.03;3.40;;;;;;;2.88;76.66;101912.02;1703179;83;21575;-70
2022/11/29 04:47:41;;;;;;;6.65;3.58;;;;;;;2.86;76.62;101909.22;1719822;81;20966;-72
2022/11/29 04:50:32;;;;;;;6.50;3.47;;;;;;;2.85;76.65;101904.95;1708404;83;21001;-72
2022/11/29 04:53:31;;;;;;;5.67;3.00;;;;;;;2.84;76.63;101902.81;1687474;82;21019;-70
2022/11/29 04:56:37;;;;;;;5.67;3.50;;;;;;;2.84;76.68;101909.41;1707746;81;21775;-71
2022/11/29 04:59:18;;;;;;;6.85;3.27;;;;;;;2.81;76.65;101909.25;1699393;82;21039;-71
2022/11/29 05:02:40;;;;;;;7.03;3.70;;;;;;;2.81;76.61;101904.47;1724677;81;21524;-70
2022/11/29 05:05:38;;;;;;;7.25;3.90;;;;;;;2.82;76.61;101915.34;1685387;82;22074;-71
2022/11/29 05:08:48;;;;;;;6.35;3.65;;;;;;;2.82;76.66;101909.56;1726133;81;21089;-71
2022/11/29 05:11:41;;;;;;;5.78;3.17;;;;;;;2.84;76.60;101909.41;1695240;82;21651;-69
2022/11/29 05:14:13;;;;;;;5.70;3.50;;;;;;;2.85;76.59;101912.36;1728123;81;21047;-71
2022/11/29 05:16:53;;;;;;;6.85;3.30;;;;;;;2.81;76.54;101913.20;1725077;81;21041;-70
2022/11/29 05:19:55;;;;;;;5.97;3.60;;;;;;;2.80;76.53;101914.71;1688858;82;21138;-70
2022/11/29 05:22:42;;;;;;;6.65;3.67;;;;;;;2.77;76.54;101927.74;1690412;82;21129;-69
2022/11/29 05:25:37;;;;;;;6.42;3.80;;;;;;;2.75;76.49;101932.86;1678084;82;21170;-69
2022/11/29 05:28:43;;;;;;;7.37;3.72;;;;;;;2.73;76.57;101929.09;1691381;83;21023;-70
2022/11/29 05:31:50;;;;;;;6.20;3.80;;;;;;;2.74;76.53;101937.82;1720083;81;21112;-69
2022/11/29 05:34:28;;;;;;;7.22;4.10;;;;;;;2.72;76.63;101935.84;1589310;89;21086;-70
2022/11/29 05:37:37;;;;;;;9.23;4.90;;;;;;;2.71;76.64;101935.02;1715155;81;21045;-69
2022/11/29 05:40:24;;;;;;;8.58;4.80;;;;;;;2.71;76.67;101939.48;1695348;83;21247;-70
2022/11/29 05:43:11;;;;;;;9.45;4.87;;;;;;;2.69;76.57;101944.09;1718463;83;20998;-70
2022/11/29 05:46:07;;;;;;;9.93;5.25;;;;;;;2.70;76.58;101946.58;1710763;83;21101;-70
2022/11/29 05:49:05;;;;;;;8.30;4.50;;;;;;;2.71;76.54;101936.84;1691592;83;21005;-70
2022/11/29 05:52:04;;;;;;;7.22;4.30;;;;;;;2.69;76.53;101949.36;1715246;83;21123;-70
2022/11/29 05:54:38;;;;;;;8.95;5.17;;;;;;;2.71;76.52;101964.54;1714104;83;21091;-72
2022/11/29 05:57:13;;;;;;;8.38;5.35;;;;;;;2.72;76.49;101973.59;1727422;81;21015;-70
2022/11/29 05:59:41;;;;;;;9.70;5.60;;;;;;;2.69;76.32;101966.52;1702549;83;21648;-71
2022/11/29 06:02:25;;;;;;;10.50;6.10;;;;;;;2.67;76.28;101972.48;1712217;83;21005;-71
2022/11/29 06:17:47;;;;;;;9.43;5.73;;;;;;;3.26;75.69;101990.05;1798843;77;23293;-74
2022/11/29 06:20:57;;;;;;;8.35;5.87;;;;;;;3.24;75.37;101994.66;1825586;78;21066;-74
2022/11/29 06:23:49;;;;;;;8.10;5.65;;;;;;;3.14;75.24;102005.43;1818742;78;21629;-73
2022/11/29 06:26:47;;;;;;;;;;;;;;;3.08;75.28;102002.66;1834716;78;20959;-73
2022/11/29 06:29:37;;;;;;;7.92;4.83;;;;;;;3.07;75.27;102008.94;1739983;80;20492;-73
2022/11/29 06:32:43;;;;;;;9.00;5.75;;;;;;;2.99;75.18;102012.41;1795364;78;20955;-73
2022/11/29 06:35:34;;;;;;;9.33;5.62;;;;;;;2.99;75.24;102008.45;1820740;78;21612;-73
2022/11/29 06:38:05;;;;;;;10.82;6.17;;;;;;;2.95;75.25;102005.34;1809817;78;21378;-73
2022/11/29 06:40:33;;;;;;;9.85;6.25;;;;;;;2.87;75.23;102007.20;1822885;78;21003;-73
2022/11/29 06:43:01;;;;;;;10.95;6.25;;;;;;;2.84;75.34;102008.36;1808900;78;21118;-73
2022/11/29 06:45:29;;;;;;;9.75;6.30;;;;;;;2.92;75.21;102010.95;1805666;78;21019;-73
2022/11/29 06:48:02;;;;;;;11.97;6.95;;;;;;;2.97;75.11;102005.19;1817768;78;21468;-73
2022/11/29 06:50:59;;;;;;;16.55;7.72;;;;;;;2.96;75.09;102001.73;1810826;78;21096;-73
2022/11/29 06:53:57;;;;;;;11.75;6.65;;;;;;;2.85;75.39;102003.90;1818416;78;21043;-73
2022/11/29 06:56:54;;;;;;;10.90;7.00;;;;;;;2.83;75.63;102008.05;1812231;78;21070;-75
2022/11/29 06:59:27;;;;;;;12.03;7.12;;;;;;;2.83;75.79;102009.36;1805687;78;21031;-75
2022/11/29 07:01:57;;;;;;;;;;;;;;;2.78;75.83;102005.08;1814567;78;21478;-74
2022/11/29 07:04:51;;;;;;;14.20;7.60;;;;;;;2.77;75.93;102002.13;1830355;78;21135;-74
2022/11/29 07:07:20;;;;;;;15.10;8.60;;;;;;;2.70;76.02;102001.12;1781392;79;21426;-75
2022/11/29 07:09:49;;;;;;;13.55;7.97;;;;;;;2.68;76.14;102006.59;1795499;79;21501;-75
2022/11/29 07:12:17;;;;;;;14.80;7.47;;;;;;;2.69;76.22;102016.64;1783962;79;20983;-73
2022/11/29 07:14:44;;;;;;;12.70;7.62;;;;;;;2.70;76.31;102017.81;1788167;79;21022;-73
2022/11/29 07:17:54;;;;;;;14.40;7.33;;;;;;;2.73;76.38;102017.94;1790563;79;21454;-75
2022/11/29 07:20:43;;;;;;;13.70;7.70;;;;;;;2.77;76.43;102023.23;1788810;79;20971;-73
2022/11/29 07:23:18;;;;;;;14.60;7.75;;;;;;;2.75;76.42;102018.11;1786241;79;21478;-72
2022/11/29 07:26:24;;;;;;;13.38;7.80;;;;;;;2.72;76.45;102018.94;1811615;79;21003;-75
2022/11/29 07:29:17;;;;;;;12.37;7.40;;;;;;;2.71;76.53;102023.90;1796407;79;20939;-73
2022/11/29 07:32:15;;;;;;;12.80;7.40;;;;;;;2.81;76.38;102027.17;1798958;79;21227;-72
2022/11/29 07:35:00;;;;;;;13.88;7.42;;;;;;;2.70;76.48;102028.36;1791380;79;21553;-73
2022/11/29 07:38:11;;;;;;;14.80;7.92;;;;;;;2.67;76.51;102027.38;1787345;79;20986;-73
2022/11/29 07:40:43;;;;;;;14.68;7.75;;;;;;;2.66;76.56;102030.98;1779379;79;21128;-74
2022/11/29 07:43:22;;;;;;;;;;;;;;;2.77;76.38;102026.69;1779263;80;21141;-74
2022/11/29 07:45:48;;;;;;;13.43;7.42;;;;;;;2.80;76.24;102028.17;1775536;80;21123;-73
2022/11/29 07:48:16;;;;;;;14.65;7.60;;;;;;;2.69;76.54;102027.19;1779276;79;21015;-73
2022/11/29 07:50:43;;;;;;;14.98;7.08;;;;;;;2.67;76.64;102027.88;1779395;79;21033;-73
2022/11/29 07:53:18;;;;;;;14.93;8.00;;;;;;;2.68;76.69;102029.52;1797772;79;21101;-73
2022/11/29 07:55:45;;;;;;;13.38;7.35;;;;;;;2.66;76.66;102026.20;1780794;79;21061;-73
2022/11/29 07:58:13;;;;;;;14.98;7.30;;;;;;;2.64;76.75;102026.39;1794852;79;21054;-73
2022/11/29 08:00:41;;;;;;;13.88;7.58;;;;;;;2.63;76.83;102022.59;1803437;79;21027;-73
2022/11/29 08:03:08;;;;;;;14.50;7.42;;;;;;;2.63;76.87;102019.95;1795392;79;21038;-73
2022/11/29 08:05:36;;;;;;;14.90;8.08;;;;;;;2.61;76.97;102026.73;1780185;79;21007;-73
2022/11/29 08:08:03;;;;;;;14.10;7.35;;;;;;;2.60;77.04;102017.17;1798224;79;20924;-73
2022/11/29 08:10:30;;;;;;;16.48;7.65;;;;;;;2.63;77.08;102012.85;1777924;80;21141;-73
2022/11/29 08:12:58;;;;;;;15.35;7.55;;;;;;;2.67;77.06;102012.05;1780684;79;20971;-73
2022/11/29 08:15:24;;;;;;;16.75;8.25;;;;;;;2.66;77.07;102013.02;1788537;79;21011;-74
2022/11/29 08:17:52;;;;;;;15.68;8.28;;;;;;;2.65;76.89;102012.70;1779688;79;21034;-73
2022/11/29 08:20:18;;;;;;;16.02;8.75;;;;;;;2.61;76.91;102007.44;1786002;79;21011;-73
2022/11/29 08:22:57;;;;;;;14.35;8.05;;;;;;;2.61;76.91;102010.08;1795572;79;21142;-75
2022/11/29 08:25:25;;;;;;;13.13;7.35;;;;;;;2.62;76.92;102005.94;1779143;79;21109;-75
2022/11/29 08:27:53;;;;;;;16.87;8.78;;;;;;;2.64;76.93;101993.92;1790738;79;21426;-75
2022/11/29 08:30:23;;;;;;;16.52;8.93;;;;;;;2.64;76.90;101993.92;1790454;79;21117;-75
2022/11/29 08:32:50;;;;;;;15.18;8.33;;;;;;;2.65;76.76;101991.59;1784570;79;20975;-75
2022/11/29 08:35:18;;;;;;;14.98;8.28;;;;;;;2.70;76.81;102001.12;1779820;79;21081;-75
2022/11/29 08:37:45;;;;;;;17.00;9.38;;;;;;;2.80;76.80;102008.38;1793856;79;20975;-75
2022/11/29 08:40:13;;;;;;;17.45;9.20;;;;;;;2.84;76.62;101999.13;1782193;79;20983;-75
2022/11/29 08:42:40;;;;;;;18.40;9.15;;;;;;;2.86;76.41;101994.98;1797386;79;21051;-75
2022/11/29 08:45:08;;;;;;;16.55;9.10;;;;;;;2.81;76.07;101992.86;1778805;79;21018;-76
2022/11/29 08:47:36;;;;;;;14.18;8.28;;;;;;;2.78;76.04;101991.89;1779419;80;21181;-75
2022/11/29 08:50:13;;;;;;;16.50;9.10;;;;;;;2.77;75.98;101994.20;1779480;80;21023;-75
2022/11/29 08:55:34;;;;;;;13.53;7.87;;;;;;;2.82;76.00;101991.36;1790444;79;20999;-74
2022/11/29 08:58:04;;;;;;;14.85;8.03;;;;;;;2.88;75.84;101988.55;1787849;79;21069;-74
2022/11/29 09:00:31;;;;;;;13.83;8.90;;;;;;;2.89;75.67;101990.69;1808152;79;21981;-74
2022/11/29 09:05:49;;;;;;;12.82;8.33;;;;;;;2.93;75.54;101993.30;1791022;79;21050;-75
2022/11/29 09:08:15;;;;;;;15.28;8.48;;;;;;;2.94;75.36;101993.15;1782468;79;21517;-75
2022/11/29 09:10:42;;;;;;;15.45;8.70;;;;;;;2.95;75.29;101984.23;1793168;79;21733;-73
2022/11/29 09:13:09;;;;;;;16.15;8.80;;;;;;;3.00;75.24;101981.91;1788484;79;21239;-73
2022/11/29 09:15:37;;;;;;;14.50;8.70;;;;;;;3.04;75.13;101976.60;1789019;79;21006;-74
2022/11/29 09:18:04;;;;;;;14.85;9.45;;;;;;;3.02;74.76;101983.86;1779252;80;21081;-75
2022/11/29 09:20:31;;;;;;;14.53;8.78;;;;;;;3.00;74.46;101979.27;1780382;79;20995;-73
2022/11/29 11:26:43;;;;;;;15.50;10.23;;;;;;;2.79;81.22;101949.98;1834552;77;22780;-71
2022/11/29 11:29:23;;;;;;;16.12;9.95;;;;;;;2.79;80.33;101952.63;1799698;79;20936;-70
2022/11/29 11:31:57;;;;;;;15.20;9.15;;;;;;;2.77;79.46;101947.53;1806277;78;21117;-69
2022/11/29 11:34:35;;;;;;;14.90;9.48;;;;;;;2.76;78.64;101950.33;1820901;78;21023;-71
2022/11/29 11:37:25;;;;;;;16.60;9.70;;;;;;;2.72;78.19;101945.07;1792757;80;21420;-71
2022/11/29 11:39:58;;;;;;;15.53;8.93;;;;;;;2.74;77.98;101951.02;1824572;78;20947;-71
2022/11/29 11:42:37;;;;;;;17.82;9.25;;;;;;;2.77;77.70;101944.08;1792710;80;21552;-71
2022/11/29 11:45:13;;;;;;;14.35;9.10;;;;;;;2.79;77.42;101942.06;1795035;78;21563;-71
2022/11/29 11:47:56;;;;;;;16.70;9.08;;;;;;;2.76;77.10;101940.62;1792568;80;20977;-71
2022/11/29 11:50:33;;;;;;;14.35;7.87;;;;;;;2.75;76.82;101938.13;1824455;78;21436;-71
2022/11/29 11:53:35;;;;;;;16.95;8.20;;;;;;;2.85;76.20;101940.56;1824889;78;20959;-72
2022/11/29 11:56:06;;;;;;;13.53;7.72;;;;;;;2.86;75.95;101940.88;1824906;78;21607;-71
2022/11/29 11:58:51;;;;;;;13.72;8.18;;;;;;;2.88;75.80;101937.09;1824598;78;21090;-72
2022/11/29 12:01:30;;;;;;;15.80;8.45;;;;;;;2.77;75.98;101928.24;1823587;78;20998;-70
2022/11/29 12:04:26;;;;;;;16.10;8.60;;;;;;;2.72;76.04;101931.37;1824742;78;21084;-70
2022/11/29 12:07:03;;;;;;;12.55;8.00;;;;;;;2.74;76.09;101930.72;1766327;80;21000;-70
2022/11/29 12:09:43;;;;;;;15.18;8.35;;;;;;;2.75;76.04;101924.94;1785207;80;20996;-69
2022/11/29 12:12:26;;;;;;;14.15;8.85;;;;;;;2.72;76.00;101923.46;1790973;80;21069;-70
2022/11/29 12:15:15;;;;;;;16.55;9.00;;;;;;;2.72;76.01;101925.28;1791001;80;21000;-70
2022/11/29 12:18:13;;;;;;;13.68;8.15;;;;;;;2.85;75.51;101931.33;1795173;78;20949;-70
2022/11/29 12:20:51;;;;;;;15.35;8.83;;;;;;;2.75;75.66;101926.27;1824689;78;20946;-70
2022/11/29 12:23:51;;;;;;;15.50;9.53;;;;;;;2.69;75.66;101924.30;1767056;79;21557;-70
2022/11/29 12:26:22;;;;;;;13.25;7.53;;;;;;;2.65;75.74;101927.78;1758431;81;21881;-71
2022/11/29 12:28:49;;;;;;;11.43;7.40;;;;;;;2.67;75.91;101930.27;1758863;81;21707;-70
2022/11/29 12:32:03;;;;;;;14.40;7.95;;;;;;;2.68;75.94;101935.86;1759281;81;21541;-71
2022/11/29 12:34:50;;;;;;;12.68;7.95;;;;;;;2.68;75.97;101933.22;1759148;81;21137;-71
2022/11/29 12:37:27;;;;;;;12.00;7.83;;;;;;;2.70;76.09;101933.38;1759539;81;20987;-71
2022/11/29 12:40:24;;;;;;;15.00;8.58;;;;;;;2.75;76.15;101941.59;1759397;80;21255;-71
2022/11/29 12:43:14;;;;;;;13.70;8.25;;;;;;;2.78;76.13;101939.11;1759250;81;21059;-71
2022/11/29 12:45:49;;;;;;;14.43;7.78;;;;;;;2.81;76.12;101944.05;1716992;81;21106;-71
2022/11/29 12:48:41;;;;;;;13.85;8.13;;;;;;;2.78;75.97;101944.39;1758575;81;21173;-70
2022/11/29 12:51:28;;;;;;;13.85;7.90;;;;;;;2.74;75.98;101943.09;1759085;81;20991;-69
2022/11/29 12:54:36;;;;;;;13.78;8.40;;;;;;;2.71;76.01;101942.12;1759158;81;21102;-69
2022/11/29 12:57:29;;;;;;;16.10;9.15;;;;;;;2.68;76.04;101937.18;1760114;80;21431;-69
2022/11/29 13:00:19;;;;;;;12.13;8.03;;;;;;;2.78;75.68;101935.97;1758675;81;21007;-70
2022/11/29 13:03:12;;;;;;;15.38;8.45;;;;;;;2.70;76.00;101928.11;1759004;81;21035;-69
2022/11/29 13:06:00;;;;;;;14.20;7.92;;;;;;;2.68;75.98;101943.77;1758860;81;20960;-69
2022/11/29 13:09:06;;;;;;;16.82;8.73;;;;;;;2.68;76.07;101950.37;1785770;78;21099;-69
2022/11/29 13:11:36;;;;;;;14.10;7.33;;;;;;;2.65;76.09;101940.16;1790019;79;21463;-69
2022/11/29 13:14:49;;;;;;;14.93;8.00;;;;;;;2.60;76.17;101928.81;1769513;80;21118;-69
2022/11/29 13:17:30;;;;;;;15.70;9.03;;;;;;;2.59;76.24;101937.19;1738642;82;21067;-69
2022/11/29 13:20:27;;;;;;;16.35;9.03;;;;;;;2.59;76.18;101937.19;1737830;82;21451;-71
2022/11/29 13:23:02;;;;;;;16.12;9.40;;;;;;;2.59;76.13;101941.65;1748635;81;21782;-69
2022/11/29 13:25:45;;;;;;;17.67;9.33;;;;;;;2.57;76.09;101949.75;1756366;81;20947;-69
2022/11/29 13:28:26;;;;;;;16.17;9.43;;;;;;;2.55;76.01;101951.72;1759204;81;20951;-70
2022/11/29 13:30:57;;;;;;;18.15;9.35;;;;;;;2.55;76.00;101950.91;1759926;80;21091;-69
2022/11/29 13:33:33;;;;;;;15.72;9.03;;;;;;;2.52;75.99;101952.05;1759358;81;21042;-70
2022/11/29 13:36:26;;;;;;;16.48;9.30;;;;;;;2.55;76.02;101954.86;1757536;81;21154;-70
2022/11/29 13:39:19;;;;;;;16.12;9.78;;;;;;;2.55;76.01;101949.08;1759137;81;20992;-70
2022/11/29 13:42:12;;;;;;;15.15;8.78;;;;;;;2.55;76.03;101956.99;1753159;81;21055;-71
2022/11/29 13:44:47;;;;;;;16.20;8.48;;;;;;;2.57;75.97;101957.66;1709398;83;21063;-70
2022/11/29 18:22:52;;;;;;;23.00;11.93;;;;;;;2.11;88.88;101990.38;1833932;77;23256;-69
2022/11/29 18:25:19;;;;;;;22.00;11.18;;;;;;;2.14;88.22;101989.69;1792830;80;20932;-72
2022/11/29 18:46:34;;;;;;;10.43;6.73;;;;;;;2.43;84.39;101979.44;1853786;77;22615;-70
2022/11/29 18:49:02;;;;;;;12.43;6.47;;;;;;;2.36;83.57;101977.14;1850274;77;20845;-72
2022/11/29 18:51:29;;;;;;;9.88;6.08;;;;;;;2.33;82.92;101981.44;1839832;77;21128;-70
2022/11/29 18:53:57;;;;;;;11.40;6.20;;;;;;;2.29;82.32;101973.54;1836783;77;20919;-71
2022/11/29 18:56:25;;;;;;;10.98;5.87;;;;;;;;;;1849740;77;20920;-71
2022/11/29 18:59:00;;;;;;;10.95;6.03;;;;;;;2.21;81.20;101980.16;1850381;77;20959;-70
2022/11/29 19:01:31;;;;;;;10.40;5.70;;;;;;;2.20;80.85;101983.26;1850026;77;20979;-71
2022/11/29 19:03:59;;;;;;;;;;;;;;;2.20;80.52;101984.58;1853354;77;21069;-70
2022/11/29 19:06:32;;;;;;;9.08;4.95;;;;;;;2.22;80.17;101979.97;1849677;77;20206;-71
2022/11/29 19:09:02;;;;;;;11.03;5.50;;;;;;;2.18;79.68;101979.98;1831483;77;20954;-70
2022/11/29 19:11:31;;;;;;;11.08;5.85;;;;;;;2.13;79.13;101983.60;1816555;79;20959;-70
2022/11/29 19:14:01;;;;;;;9.55;5.40;;;;;;;2.13;78.99;101984.92;1816704;79;21473;-72
2022/11/29 19:16:31;;;;;;;8.10;5.08;;;;;;;2.11;78.72;101986.42;1816985;79;22365;-71
2022/11/29 19:18:58;;;;;;;9.63;5.50;;;;;;;2.15;78.64;101990.86;1816622;79;21007;-71
2022/11/29 19:21:27;;;;;;;12.98;5.90;;;;;;;2.17;78.58;101982.77;1816579;79;21003;-71
2022/11/29 19:24:00;;;;;;;10.10;5.72;;;;;;;2.19;78.47;101980.30;1865734;76;20972;-71
2022/11/29 19:26:28;;;;;;;11.15;6.05;;;;;;;2.22;78.35;101987.06;1847037;76;21025;-72
2022/11/29 19:28:55;;;;;;;12.03;6.05;;;;;;;2.21;78.21;101981.47;1833607;76;21129;-71
2022/11/29 19:31:23;;;;;;;11.90;6.08;;;;;;;2.22;78.23;101980.47;1823845;77;21075;-72
2022/11/29 19:33:51;;;;;;;9.45;5.85;;;;;;;2.32;78.01;101977.16;1435116;77;10000253;-71
2022/11/29 19:36:21;;;;;;;9.75;6.22;;;;;;;2.27;77.92;101983.41;1831955;77;20986;-72
2022/11/29 19:38:49;;;;;;;10.55;6.50;;;;;;;2.24;77.93;101980.64;1805153;78;21101;-72
2022/11/29 19:41:21;;;;;;;9.95;6.22;;;;;;;2.28;77.91;101983.27;1807966;78;21560;-72
2022/11/29 19:43:48;;;;;;;11.57;6.35;;;;;;;2.29;77.80;101979.63;1850422;77;21215;-71
2022/11/29 19:46:21;;;;;;;9.60;6.30;;;;;;;2.29;77.70;101978.81;1807233;77;21082;-72